Terminal Aerodrome Forecast
Issued by NWS

Home | Current Version | Previous Version | Text Only | Print | Product List | Glossary On
Versions: 1 2 3 4 5 6 7 8 9 10 11 12
167
FTUS45 KRIW 200521
TAFLND
TAF
KLND 200521Z 2006/2106 25007KT P6SM BKN200 WS016/26055KT
     FM202000 26012G20KT P6SM BKN150 WS014/27050KT
     FM210200 28008KT P6SM SCT100 BKN150 WS015/28050KT=

USA.gov is the U.S. government's official web portal to all federal, state and local government web resources and services.